Aviation Digital Data Service (ADDS)

Output produced by METARs form (0905 UTC 28 August 2014)
found at http://www.aviationweather.gov/adds/metars/
 
KLGA 280832Z 2809/2906 35010KT P6SM FEW050 
     FM281300 34012G18KT P6SM SKC 
     FM281800 33012KT P6SM FEW040 
     FM290300 34011KT P6SM SKC